Time;durP1;ratioP1;P1;durP2;ratioP2;P2;SDS_P1;SDS_P2;PMS_P1;PMS_P2;Temp;Humidity;BMP_temperature;BMP_pressure;BME280_temperature;BME280_humidity;BME280_pressure;Samples;Min_cycle;Max_cycle;Signal;HPM_P1;HPM_P2
2022/06/29 00:00:19;;;;;;;7.47;6.97;;;20.70;99.90;;;;;;4999247;28;20141;-66
2022/06/29 00:02:46;;;;;;;7.05;6.55;;;20.70;99.90;;;;;;4997343;28;20057;-69
2022/06/29 00:05:16;;;;;;;8.65;8.07;;;20.60;99.90;;;;;;4996885;28;20180;-67
2022/06/29 00:07:43;;;;;;;8.07;7.43;;;20.60;99.90;;;;;;4998171;28;20034;-66
2022/06/29 00:10:11;;;;;;;7.50;6.85;;;20.60;99.90;;;;;;4998049;28;20505;-63
2022/06/29 00:12:37;;;;;;;9.13;8.30;;;20.60;99.90;;;;;;5001444;28;20037;-65
2022/06/29 00:15:03;;;;;;;9.13;8.23;;;20.50;99.90;;;;;;5004524;28;20027;-64
2022/06/29 00:17:31;;;;;;;8.43;7.78;;;20.50;99.90;;;;;;4994791;28;20026;-64
2022/06/29 00:19:57;;;;;;;9.10;8.23;;;20.50;99.90;;;;;;4999045;28;20027;-64
2022/06/29 00:22:23;;;;;;;9.40;8.13;;;20.40;99.90;;;;;;4996121;28;20366;-66
2022/06/29 00:24:49;;;;;;;8.70;7.97;;;20.40;99.90;;;;;;5003822;28;20041;-67
2022/06/29 00:27:15;;;;;;;9.02;8.35;;;20.30;99.90;;;;;;5008091;28;20367;-63
2022/06/29 00:29:40;;;;;;;10.73;8.45;;;20.30;99.90;;;;;;5003790;28;20165;-64
2022/06/29 00:32:07;;;;;;;9.63;8.68;;;20.30;99.90;;;;;;4996544;28;20027;-65
2022/06/29 00:34:32;;;;;;;8.88;8.27;;;20.30;99.90;;;;;;4997757;28;20022;-64
2022/06/29 00:36:59;;;;;;;9.90;9.18;;;20.40;99.90;;;;;;5001198;28;20030;-67
2022/06/29 00:39:24;;;;;;;9.13;8.43;;;20.40;99.90;;;;;;4999359;28;20397;-64
2022/06/29 00:41:50;;;;;;;9.13;8.32;;;20.40;99.90;;;;;;5000086;28;20032;-65
2022/06/29 00:44:29;;;;;;;9.02;8.43;;;20.40;99.90;;;;;;4997744;28;20037;-63
2022/06/29 00:47:00;;;;;;;8.52;7.93;;;20.40;99.90;;;;;;4999211;28;20034;-68
2022/06/29 00:49:27;;;;;;;8.93;8.18;;;20.40;99.90;;;;;;5000697;28;20027;-68
2022/06/29 00:52:02;;;;;;;8.68;7.97;;;20.40;99.90;;;;;;5004232;28;20041;-64
2022/06/29 00:54:35;;;;;;;8.55;7.85;;;20.40;99.90;;;;;;4997093;28;20061;-63
2022/06/29 00:57:13;;;;;;;9.10;8.30;;;20.40;99.90;;;;;;4999761;28;20101;-64
2022/06/29 00:59:44;;;;;;;8.63;8.07;;;20.40;99.90;;;;;;4997881;28;20046;-66
2022/06/29 01:02:12;;;;;;;8.43;7.72;;;20.40;99.90;;;;;;4999150;28;20662;-63
2022/06/29 01:04:38;;;;;;;8.68;8.07;;;20.30;99.90;;;;;;4999580;28;20041;-64
2022/06/29 01:07:04;;;;;;;8.95;8.30;;;20.30;99.90;;;;;;4997435;28;20540;-64
2022/06/29 01:09:30;;;;;;;8.80;8.10;;;20.30;99.90;;;;;;5000316;28;20030;-64
2022/06/29 01:11:57;;;;;;;9.77;9.07;;;20.20;99.90;;;;;;5000306;28;20057;-64
2022/06/29 01:14:26;;;;;;;10.15;9.45;;;20.20;99.90;;;;;;5002514;28;20032;-68
2022/06/29 01:16:55;;;;;;;8.63;8.02;;;20.20;99.90;;;;;;5001583;28;20036;-63
2022/06/29 01:19:21;;;;;;;8.70;8.10;;;20.20;99.90;;;;;;4997835;28;20525;-70
2022/06/29 01:21:51;;;;;;;10.02;9.18;;;20.20;99.90;;;;;;4997385;28;20061;-63
2022/06/29 01:24:20;;;;;;;9.30;8.70;;;20.20;99.90;;;;;;5000598;28;20034;-64
2022/06/29 01:26:46;;;;;;;8.45;7.80;;;20.20;99.90;;;;;;4998988;28;20105;-63
2022/06/29 01:29:12;;;;;;;9.10;8.50;;;20.20;99.90;;;;;;5003411;28;20157;-64
2022/06/29 01:31:37;;;;;;;7.80;7.28;;;20.10;99.90;;;;;;5004390;28;20500;-67
2022/06/29 01:34:03;;;;;;;9.43;8.60;;;20.20;99.90;;;;;;5002028;28;20490;-64
2022/06/29 01:36:28;;;;;;;8.10;7.40;;;20.10;99.90;;;;;;4999589;28;20485;-63
2022/06/29 01:38:54;;;;;;;8.68;8.05;;;20.10;99.90;;;;;;4999628;28;20023;-64
2022/06/29 01:41:20;;;;;;;8.32;7.63;;;20.10;99.90;;;;;;5003060;28;20029;-64
2022/06/29 01:43:45;;;;;;;8.63;8.02;;;20.10;99.90;;;;;;5001923;28;20068;-70
2022/06/29 01:46:11;;;;;;;8.15;7.63;;;20.20;99.90;;;;;;4999363;28;20038;-63
2022/06/29 01:48:37;;;;;;;8.65;8.05;;;20.10;99.90;;;;;;4998440;28;20026;-65
2022/06/29 01:51:03;;;;;;;8.90;8.30;;;20.10;99.90;;;;;;4998309;28;20485;-63
2022/06/29 01:53:28;;;;;;;7.85;7.32;;;20.10;99.90;;;;;;5000922;28;20034;-64
2022/06/29 01:55:55;;;;;;;8.90;8.30;;;20.10;99.90;;;;;;5001751;28;20501;-65
2022/06/29 01:58:21;;;;;;;8.20;7.50;;;20.10;99.90;;;;;;4997265;28;20512;-64
2022/06/29 02:00:46;;;;;;;7.78;7.28;;;20.10;99.90;;;;;;5000420;28;20030;-64
2022/06/29 02:03:12;;;;;;;8.70;8.07;;;20.10;99.90;;;;;;5001135;28;20056;-66
2022/06/29 02:05:38;;;;;;;8.32;7.72;;;20.00;99.90;;;;;;5000670;28;20026;-64
2022/06/29 02:08:04;;;;;;;7.97;7.38;;;20.00;99.90;;;;;;5001570;28;20026;-63
2022/06/29 02:10:30;;;;;;;8.85;8.02;;;19.90;99.90;;;;;;5000829;28;20119;-63
2022/06/29 02:12:56;;;;;;;8.93;8.13;;;19.90;99.90;;;;;;4997390;28;20030;-63
2022/06/29 02:15:23;;;;;;;8.68;7.97;;;19.90;99.90;;;;;;4998085;28;20389;-62
2022/06/29 02:17:50;;;;;;;7.78;7.28;;;19.90;99.90;;;;;;5000196;28;20022;-67
2022/06/29 02:20:16;;;;;;;8.32;7.63;;;19.90;99.90;;;;;;5004858;28;20037;-63
2022/06/29 02:22:41;;;;;;;8.05;7.32;;;19.90;99.90;;;;;;5000860;28;20030;-63
2022/06/29 02:25:10;;;;;;;8.05;7.43;;;19.90;99.90;;;;;;5001305;28;20034;-67
2022/06/29 02:27:40;;;;;;;7.85;7.10;;;20.00;99.90;;;;;;5002425;28;20034;-63
2022/06/29 02:30:08;;;;;;;7.43;6.82;;;20.00;99.90;;;;;;4998348;28;20034;-63
2022/06/29 02:35:18;;;;;;;7.88;7.35;;;20.00;99.90;;;;;;5003261;28;20438;-63
2022/06/29 02:37:44;;;;;;;7.18;6.68;;;20.00;99.90;;;;;;4999285;28;20054;-64
2022/06/29 02:40:10;;;;;;;7.07;6.57;;;19.90;99.90;;;;;;5003582;28;20026;-64
2022/06/29 02:42:36;;;;;;;8.80;7.80;;;19.90;99.90;;;;;;5009910;28;20543;-63
2022/06/29 02:45:01;;;;;;;8.10;7.40;;;19.90;99.90;;;;;;5005652;28;20030;-67
2022/06/29 02:47:27;;;;;;;12.18;8.55;;;19.90;99.90;;;;;;5006589;28;20065;-66
2022/06/29 02:49:54;;;;;;;8.25;7.63;;;19.80;99.90;;;;;;5006637;28;20022;-66
2022/06/29 02:52:20;;;;;;;7.47;6.97;;;19.80;99.90;;;;;;5004197;28;20026;-63
2022/06/29 02:54:46;;;;;;;8.82;7.93;;;19.80;99.90;;;;;;5004152;28;20427;-64
2022/06/29 02:57:12;;;;;;;8.38;7.57;;;19.80;99.90;;;;;;5001920;28;20037;-66
2022/06/29 02:59:38;;;;;;;11.45;8.02;;;19.80;99.90;;;;;;5007516;28;20018;-63
2022/06/29 03:02:07;;;;;;;8.95;8.10;;;19.80;99.90;;;;;;5001774;28;20834;-63
2022/06/29 03:04:34;;;;;;;8.40;7.70;;;19.80;99.90;;;;;;4998347;28;20038;-65
2022/06/29 03:07:01;;;;;;;8.07;7.38;;;19.70;99.90;;;;;;5001603;28;20041;-66
2022/06/29 03:09:27;;;;;;;7.40;6.90;;;19.70;99.90;;;;;;5003299;28;20033;-63
2022/06/29 03:11:56;;;;;;;7.47;6.88;;;19.80;99.90;;;;;;5001971;28;20053;-63
2022/06/29 03:14:22;;;;;;;7.03;6.50;;;19.70;99.90;;;;;;5004519;28;20027;-61
2022/06/29 03:16:50;;;;;;;6.55;6.15;;;19.70;99.90;;;;;;5004746;28;20023;-61
2022/06/29 03:19:16;;;;;;;7.03;6.57;;;19.70;99.90;;;;;;4998879;28;20433;-61
2022/06/29 03:21:43;;;;;;;6.90;6.47;;;19.70;99.90;;;;;;5004902;28;20406;-61
2022/06/29 03:24:09;;;;;;;7.07;6.47;;;19.70;99.90;;;;;;5002845;28;20029;-61
2022/06/29 03:26:35;;;;;;;6.75;6.22;;;19.70;99.90;;;;;;5002078;28;20026;-61
2022/06/29 03:29:00;;;;;;;7.72;7.05;;;19.70;99.90;;;;;;5006122;28;20161;-61
2022/06/29 03:31:26;;;;;;;9.93;6.47;;;19.70;99.90;;;;;;4997728;28;20029;-60
2022/06/29 03:33:52;;;;;;;7.38;6.82;;;19.70;99.90;;;;;;5003616;28;20030;-61
2022/06/29 03:36:17;;;;;;;6.93;6.43;;;19.70;99.90;;;;;;5004035;28;20680;-61
2022/06/29 03:38:43;;;;;;;6.90;6.40;;;19.70;99.90;;;;;;5004551;28;20014;-61
2022/06/29 03:41:09;;;;;;;7.22;6.72;;;19.70;99.90;;;;;;5004800;28;20389;-61
2022/06/29 03:43:34;;;;;;;6.95;6.45;;;19.80;99.90;;;;;;4999686;28;20036;-61
2022/06/29 03:46:00;;;;;;;7.15;6.55;;;19.80;99.90;;;;;;5000370;28;20029;-60
2022/06/29 03:48:26;;;;;;;7.03;6.43;;;19.80;99.90;;;;;;5001815;28;20034;-61
2022/06/29 03:50:52;;;;;;;7.03;6.55;;;19.80;99.90;;;;;;5001738;28;20034;-61
2022/06/29 03:53:17;;;;;;;6.65;6.20;;;19.80;99.90;;;;;;5001490;28;20520;-61
2022/06/29 03:55:43;;;;;;;7.18;6.68;;;19.80;99.90;;;;;;5004780;28;20033;-61
2022/06/29 03:58:09;;;;;;;6.63;6.22;;;19.80;99.90;;;;;;4997055;28;20030;-61
2022/06/29 04:00:35;;;;;;;7.28;6.55;;;19.80;99.90;;;;;;5001943;28;20030;-61
2022/06/29 04:03:00;;;;;;;6.97;6.47;;;19.90;99.90;;;;;;5002873;28;20022;-61
2022/06/29 04:05:26;;;;;;;7.25;6.55;;;19.90;99.90;;;;;;5002956;28;20050;-61
2022/06/29 04:07:52;;;;;;;6.85;6.35;;;19.90;99.90;;;;;;5002708;28;20088;-60
2022/06/29 04:10:17;;;;;;;8.60;7.55;;;19.90;99.90;;;;;;4999814;28;20073;-61
2022/06/29 04:12:43;;;;;;;7.25;6.75;;;19.90;99.90;;;;;;5000033;28;20030;-61
2022/06/29 04:15:09;;;;;;;7.50;6.80;;;19.90;99.90;;;;;;5002511;28;20428;-61
2022/06/29 04:17:35;;;;;;;8.00;7.30;;;19.90;99.90;;;;;;5003615;28;20730;-61
2022/06/29 04:20:02;;;;;;;7.10;6.50;;;19.80;99.90;;;;;;4999275;28;20643;-61
2022/06/29 04:22:28;;;;;;;7.32;6.82;;;19.90;99.90;;;;;;5007735;28;20022;-61
2022/06/29 04:24:54;;;;;;;7.35;6.72;;;19.90;99.90;;;;;;4999080;28;20792;-61
2022/06/29 04:27:20;;;;;;;7.38;6.88;;;19.90;99.90;;;;;;5002348;28;20551;-61
2022/06/29 04:29:46;;;;;;;7.82;7.22;;;20.00;99.90;;;;;;5000701;28;20050;-60
2022/06/29 04:32:12;;;;;;;7.03;6.53;;;20.00;99.90;;;;;;4999466;28;20072;-61
2022/06/29 04:34:38;;;;;;;7.38;6.80;;;20.00;99.90;;;;;;5005525;28;20247;-60
2022/06/29 04:37:03;;;;;;;7.72;7.05;;;20.10;99.90;;;;;;5005164;28;20117;-61
2022/06/29 04:39:29;;;;;;;7.38;6.88;;;20.10;99.90;;;;;;5004713;28;20026;-60
2022/06/29 04:41:55;;;;;;;7.03;6.45;;;20.20;99.90;;;;;;5002730;28;20022;-61
2022/06/29 04:44:21;;;;;;;9.48;6.60;;;20.20;99.90;;;;;;5001914;28;20081;-61
2022/06/29 04:46:47;;;;;;;8.07;7.03;;;20.20;99.90;;;;;;5003400;28;20478;-61
2022/06/29 04:49:12;;;;;;;8.57;7.85;;;20.30;99.90;;;;;;4999162;28;20038;-61
2022/06/29 04:51:38;;;;;;;7.90;7.28;;;20.30;99.90;;;;;;4999396;28;20042;-61
2022/06/29 04:54:04;;;;;;;7.53;7.03;;;20.30;99.90;;;;;;5004247;28;20030;-61
2022/06/29 04:56:32;;;;;;;8.23;7.60;;;20.30;99.90;;;;;;4999563;28;20120;-61
2022/06/29 04:58:59;;;;;;;10.40;7.88;;;20.30;99.90;;;;;;5003492;28;20026;-61
2022/06/29 05:01:27;;;;;;;7.72;7.07;;;20.30;99.90;;;;;;5002923;28;20398;-61
2022/06/29 05:03:54;;;;;;;7.82;7.13;;;20.30;99.90;;;;;;5001777;28;20428;-61
2022/06/29 05:06:22;;;;;;;7.50;6.80;;;20.20;99.90;;;;;;5003323;28;20049;-61
2022/06/29 05:08:51;;;;;;;7.57;7.07;;;20.30;99.90;;;;;;5000578;28;20576;-61
2022/06/29 05:11:20;;;;;;;7.63;6.85;;;20.30;99.90;;;;;;5004454;28;20037;-61
2022/06/29 05:13:46;;;;;;;8.55;7.95;;;20.40;99.90;;;;;;5003203;28;20412;-61
2022/06/29 05:16:11;;;;;;;8.30;7.60;;;20.40;99.90;;;;;;5003037;28;20045;-61
2022/06/29 05:18:37;;;;;;;7.97;7.38;;;20.40;99.90;;;;;;5003282;28;20026;-61
2022/06/29 05:21:04;;;;;;;7.15;6.45;;;20.40;99.90;;;;;;4997702;28;20053;-61
2022/06/29 05:23:31;;;;;;;6.68;6.18;;;20.50;99.90;;;;;;5004168;28;20516;-61
2022/06/29 05:25:57;;;;;;;6.95;6.45;;;20.60;99.90;;;;;;5001193;28;20029;-61
2022/06/29 05:28:23;;;;;;;7.30;6.70;;;20.80;99.90;;;;;;5000005;28;20510;-61
2022/06/29 05:30:50;;;;;;;7.50;6.90;;;21.00;99.90;;;;;;5000263;28;20491;-61
2022/06/29 05:33:16;;;;;;;7.05;6.55;;;21.20;99.90;;;;;;5001908;28;20074;-61
2022/06/29 05:35:42;;;;;;;6.82;6.22;;;21.30;99.90;;;;;;4997767;28;20476;-60
2022/06/29 05:38:08;;;;;;;6.70;6.10;;;21.50;99.90;;;;;;5005832;28;20040;-61
2022/06/29 05:40:34;;;;;;;6.95;5.82;;;21.60;99.90;;;;;;5005749;28;20033;-61
2022/06/29 05:42:59;;;;;;;7.22;6.53;;;21.60;99.90;;;;;;4997240;28;20018;-61
2022/06/29 05:45:26;;;;;;;7.18;6.22;;;21.70;99.90;;;;;;4999378;28;20058;-61
2022/06/29 05:47:53;;;;;;;5.55;5.15;;;21.70;99.90;;;;;;4999861;28;20559;-61
2022/06/29 05:50:21;;;;;;;6.45;5.53;;;21.60;99.90;;;;;;5003216;28;20046;-61
2022/06/29 05:52:47;;;;;;;5.93;5.45;;;21.70;99.90;;;;;;5000549;28;20041;-61
2022/06/29 05:55:13;;;;;;;5.78;5.38;;;21.60;99.90;;;;;;5000044;28;20445;-61
2022/06/29 05:57:38;;;;;;;6.85;5.95;;;21.60;99.90;;;;;;4994212;28;20117;-61
2022/06/29 06:00:05;;;;;;;6.63;6.22;;;21.60;99.90;;;;;;5000523;28;20122;-61
2022/06/29 06:02:31;;;;;;;6.00;5.40;;;21.60;99.90;;;;;;5001505;28;20425;-61
2022/06/29 06:04:56;;;;;;;5.95;5.45;;;21.60;99.90;;;;;;5006428;28;20088;-61
2022/06/29 06:07:22;;;;;;;6.50;5.68;;;21.60;99.90;;;;;;5000531;28;20165;-61
2022/06/29 06:09:48;;;;;;;6.97;5.80;;;21.50;99.90;;;;;;4999420;28;20537;-61
2022/06/29 06:12:14;;;;;;;6.00;5.60;;;21.40;99.90;;;;;;4996177;28;20114;-61
2022/06/29 06:14:39;;;;;;;6.32;5.07;;;21.30;99.90;;;;;;4998885;28;20044;-61
2022/06/29 06:17:05;;;;;;;6.72;5.28;;;21.20;99.90;;;;;;5003380;28;20042;-61
2022/06/29 06:19:31;;;;;;;5.65;5.25;;;21.20;99.90;;;;;;4999562;28;20047;-61
2022/06/29 06:21:56;;;;;;;6.13;5.63;;;21.20;99.90;;;;;;4997766;28;20029;-61
2022/06/29 06:24:22;;;;;;;5.72;5.15;;;21.20;99.90;;;;;;4996048;28;20026;-61
2022/06/29 06:26:48;;;;;;;5.63;5.22;;;21.20;99.90;;;;;;4994504;28;20469;-61
2022/06/29 06:29:14;;;;;;;6.70;6.20;;;21.30;99.90;;;;;;5000792;28;20034;-61
2022/06/29 06:31:40;;;;;;;5.75;5.35;;;21.30;99.90;;;;;;4998473;28;20030;-61
2022/06/29 06:34:06;;;;;;;6.28;5.68;;;21.50;99.90;;;;;;4992974;28;20030;-61
2022/06/29 06:36:31;;;;;;;6.20;5.72;;;21.60;99.90;;;;;;5001464;28;20045;-61
2022/06/29 06:38:57;;;;;;;5.90;5.40;;;21.80;99.90;;;;;;4998363;28;20121;-61
2022/06/29 06:41:23;;;;;;;5.63;5.20;;;21.90;99.90;;;;;;4998822;28;20037;-60
2022/06/29 06:43:50;;;;;;;5.65;5.20;;;22.10;99.90;;;;;;5005042;28;20366;-61
2022/06/29 06:46:16;;;;;;;5.38;4.97;;;22.20;99.90;;;;;;5000430;28;20030;-61
2022/06/29 06:48:43;;;;;;;4.93;4.53;;;22.50;99.90;;;;;;5001254;28;20033;-61
2022/06/29 06:51:10;;;;;;;5.22;4.80;;;22.90;99.90;;;;;;4998292;28;20041;-61
2022/06/29 06:53:36;;;;;;;4.80;4.40;;;23.10;99.90;;;;;;5002829;28;20050;-61
2022/06/29 06:56:01;;;;;;;5.50;5.10;;;23.60;99.90;;;;;;5004475;28;20061;-61
2022/06/29 06:58:27;;;;;;;5.28;4.82;;;24.00;99.70;;;;;;5001548;28;20128;-62
2022/06/29 07:00:53;;;;;;;5.93;3.92;;;24.60;96.80;;;;;;5004430;28;20390;-62
2022/06/29 07:03:18;;;;;;;4.43;4.03;;;25.20;95.20;;;;;;5000247;28;20589;-63
2022/06/29 07:05:44;;;;;;;5.35;4.85;;;25.70;91.90;;;;;;5001611;28;20072;-62
2022/06/29 07:08:10;;;;;;;4.55;4.15;;;25.90;89.50;;;;;;5002852;28;20433;-62
2022/06/29 07:10:35;;;;;;;4.40;4.00;;;25.80;88.60;;;;;;5002752;28;20109;-61
2022/06/29 07:13:01;;;;;;;5.35;4.78;;;25.70;89.40;;;;;;4992323;28;20062;-62
2022/06/29 07:15:27;;;;;;;6.05;4.70;;;25.50;87.90;;;;;;4998368;28;20502;-62
2022/06/29 07:17:53;;;;;;;6.43;4.40;;;25.30;89.10;;;;;;5003749;28;20072;-62
2022/06/29 07:20:18;;;;;;;7.57;4.25;;;25.20;91.30;;;;;;4998365;28;20040;-62
2022/06/29 07:22:44;;;;;;;5.28;4.25;;;25.20;91.80;;;;;;5001303;28;20038;-62
2022/06/29 07:25:10;;;;;;;5.40;5.00;;;25.00;90.10;;;;;;5005106;28;20145;-62
2022/06/29 07:27:38;;;;;;;5.30;4.22;;;25.00;90.10;;;;;;5004909;28;20030;-61
2022/06/29 07:30:04;;;;;;;5.20;4.90;;;25.00;90.30;;;;;;5003298;28;20124;-62
2022/06/29 07:32:30;;;;;;;5.32;4.93;;;24.90;90.20;;;;;;5004750;28;20061;-61
2022/06/29 07:34:56;;;;;;;5.57;5.07;;;24.70;90.70;;;;;;5004535;28;20054;-61
2022/06/29 07:37:22;;;;;;;5.57;5.07;;;24.00;92.00;;;;;;5006416;28;20068;-61
2022/06/29 07:39:48;;;;;;;6.32;5.35;;;23.80;93.10;;;;;;5004622;28;20084;-61
2022/06/29 07:42:14;;;;;;;5.38;4.97;;;23.50;94.20;;;;;;5008515;28;20037;-62
2022/06/29 07:44:39;;;;;;;6.65;6.15;;;23.30;94.80;;;;;;5006457;28;20071;-61
2022/06/29 07:47:05;;;;;;;5.43;5.03;;;23.40;94.70;;;;;;5001034;28;20114;-62
2022/06/29 07:49:31;;;;;;;5.75;5.35;;;23.60;96.20;;;;;;4997106;28;20069;-61
2022/06/29 07:51:57;;;;;;;5.93;5.32;;;23.60;95.70;;;;;;5002018;28;20453;-61
2022/06/29 07:54:22;;;;;;;5.80;5.30;;;24.00;94.70;;;;;;5001201;28;20029;-61
2022/06/29 07:56:48;;;;;;;5.63;5.22;;;24.10;93.80;;;;;;5001365;28;20064;-61
2022/06/29 07:59:14;;;;;;;6.22;5.80;;;24.10;93.40;;;;;;5006382;28;20046;-61
2022/06/29 08:01:40;;;;;;;6.10;5.68;;;24.00;92.90;;;;;;5001785;28;20029;-62
2022/06/29 08:04:05;;;;;;;5.40;5.07;;;24.20;93.30;;;;;;5006142;28;20068;-61
2022/06/29 08:06:31;;;;;;;5.72;5.25;;;24.60;93.70;;;;;;4998114;28;20042;-62
2022/06/29 08:08:58;;;;;;;5.90;5.50;;;25.20;92.30;;;;;;5003100;28;20041;-62
2022/06/29 08:11:24;;;;;;;5.28;4.88;;;26.00;90.90;;;;;;5008148;28;20039;-62
2022/06/29 08:13:50;;;;;;;5.95;5.55;;;26.60;87.10;;;;;;5003533;28;20494;-62
2022/06/29 08:16:15;;;;;;;5.10;4.80;;;26.80;84.50;;;;;;5005617;28;20048;-62
2022/06/29 08:18:41;;;;;;;5.05;4.60;;;27.30;84.90;;;;;;4997776;28;20027;-62
2022/06/29 08:21:07;;;;;;;5.03;4.60;;;27.80;79.40;;;;;;5000857;28;20022;-62
2022/06/29 08:23:33;;;;;;;6.20;4.78;;;27.80;77.90;;;;;;5000103;28;20069;-62
2022/06/29 08:25:59;;;;;;;5.53;5.15;;;28.30;79.00;;;;;;5003490;28;20034;-62
2022/06/29 08:28:26;;;;;;;4.20;4.00;;;28.40;75.20;;;;;;4999457;28;20042;-62
2022/06/29 08:30:52;;;;;;;5.15;4.80;;;28.60;74.70;;;;;;5002798;28;20036;-62
2022/06/29 08:33:20;;;;;;;4.60;4.20;;;28.40;73.90;;;;;;5001707;28;20113;-62
2022/06/29 08:35:46;;;;;;;4.90;4.50;;;28.50;73.80;;;;;;5003305;28;20057;-62
2022/06/29 08:38:12;;;;;;;3.90;3.60;;;29.80;71.70;;;;;;4997085;28;20038;-62
2022/06/29 08:40:46;;;;;;;4.38;3.97;;;30.80;66.50;;;;;;4998898;28;20080;-62
2022/06/29 08:43:14;;;;;;;4.60;4.30;;;31.00;64.90;;;;;;5003118;28;20048;-62
2022/06/29 08:45:46;;;;;;;4.53;4.15;;;30.70;64.60;;;;;;5002571;28;20031;-62
2022/06/29 08:48:13;;;;;;;4.75;4.20;;;31.00;66.70;;;;;;5003204;28;20049;-63
2022/06/29 08:50:42;;;;;;;4.30;3.90;;;31.90;63.50;;;;;;5000670;28;20513;-62
2022/06/29 08:53:11;;;;;;;4.32;4.00;;;32.00;62.50;;;;;;5001411;28;20038;-62
2022/06/29 08:55:47;;;;;;;5.10;4.60;;;31.20;61.00;;;;;;4996723;28;20031;-62
2022/06/29 08:58:25;;;;;;;5.13;4.78;;;30.00;64.20;;;;;;4998227;28;20030;-62
2022/06/29 09:00:51;;;;;;;4.85;4.45;;;30.10;67.70;;;;;;5002036;28;20030;-62
2022/06/29 09:03:19;;;;;;;5.10;4.60;;;30.10;65.30;;;;;;5002347;28;20422;-64
2022/06/29 09:05:55;;;;;;;4.38;4.00;;;29.80;66.60;;;;;;5000108;28;20024;-62
2022/06/29 09:08:21;;;;;;;4.60;4.30;;;30.00;68.60;;;;;;5000139;28;20038;-62
2022/06/29 09:10:48;;;;;;;4.60;4.18;;;30.40;66.80;;;;;;4998325;28;20078;-62
2022/06/29 09:13:22;;;;;;;4.93;4.50;;;30.20;65.30;;;;;;4999607;28;20087;-62
2022/06/29 09:15:58;;;;;;;5.10;4.63;;;29.50;66.30;;;;;;5001742;28;20485;-62
2022/06/29 09:18:30;;;;;;;4.88;4.57;;;28.90;67.90;;;;;;4998109;28;20022;-62
2022/06/29 09:21:00;;;;;;;5.78;5.47;;;28.60;69.60;;;;;;5001894;28;20018;-62
2022/06/29 09:23:27;;;;;;;5.82;5.40;;;27.90;71.90;;;;;;5001786;28;20038;-62
2022/06/29 09:25:53;;;;;;;5.05;4.65;;;27.60;73.20;;;;;;5002019;28;20018;-62
2022/06/29 09:28:19;;;;;;;6.05;5.65;;;27.70;75.60;;;;;;4999573;28;20041;-62
2022/06/29 09:30:45;;;;;;;5.97;5.47;;;27.30;74.50;;;;;;4999993;28;20129;-62
2022/06/29 09:33:11;;;;;;;6.45;5.15;;;26.90;75.90;;;;;;5003309;28;20044;-65
2022/06/29 09:35:38;;;;;;;5.68;5.20;;;26.40;77.80;;;;;;5000451;28;20481;-62
2022/06/29 09:38:25;;;;;;;5.40;5.00;;;26.10;77.80;;;;;;4997096;28;20073;-62
2022/06/29 09:41:14;;;;;;;6.03;5.05;;;26.10;78.50;;;;;;5000024;28;20038;-62
2022/06/29 09:43:40;;;;;;;7.22;5.38;;;26.00;80.60;;;;;;4999617;28;20791;-62
2022/06/29 09:46:08;;;;;;;5.68;5.28;;;25.90;79.80;;;;;;5000871;28;20024;-62
2022/06/29 09:48:35;;;;;;;6.13;5.68;;;25.80;80.30;;;;;;5003078;28;20366;-62
2022/06/29 09:51:30;;;;;;;7.35;5.10;;;25.50;80.70;;;;;;4999503;28;20041;-61
2022/06/29 09:53:53;;;;;;;6.07;5.57;;;25.20;82.80;;;;;;4999821;28;20371;-62
2022/06/29 09:56:21;;;;;;;6.28;5.15;;;24.80;85.00;;;;;;5003733;28;20027;-63
2022/06/29 09:58:48;;;;;;;5.55;5.05;;;24.80;86.10;;;;;;5005132;28;20048;-63
2022/06/29 10:04:01;;;;;;;5.90;5.40;;;24.70;88.50;;;;;;5000509;28;20069;-63
2022/06/29 10:06:29;;;;;;;6.32;5.93;;;24.60;90.00;;;;;;5000508;28;20018;-63
2022/06/29 10:08:56;;;;;;;5.85;5.35;;;24.40;90.20;;;;;;5000272;28;20027;-63
2022/06/29 10:14:41;;;;;;;6.85;6.25;;;24.20;91.00;;;;;;5002332;28;20116;-63
2022/06/29 10:17:18;;;;;;;7.13;6.18;;;24.10;91.50;;;;;;4999851;28;20022;-63
2022/06/29 10:20:14;;;;;;;6.28;5.80;;;24.10;91.60;;;;;;4997999;28;20137;-63
2022/06/29 10:22:40;;;;;;;6.85;6.25;;;24.10;92.10;;;;;;4997004;28;20072;-63
2022/06/29 10:25:10;;;;;;;6.68;6.18;;;24.00;92.10;;;;;;5000565;28;20038;-63
2022/06/29 10:27:36;;;;;;;6.40;5.80;;;24.00;92.00;;;;;;5001421;28;20502;-63
2022/06/29 10:30:24;;;;;;;6.00;5.53;;;24.20;92.40;;;;;;4997150;28;20083;-63
2022/06/29 10:32:50;;;;;;;9.00;5.47;;;24.60;91.00;;;;;;4987691;28;20023;-63
2022/06/29 10:35:17;;;;;;;7.22;6.72;;;25.00;90.70;;;;;;4999078;28;20117;-63
2022/06/29 10:37:53;;;;;;;6.35;5.45;;;25.40;87.90;;;;;;4998826;28;20041;-63
2022/06/29 10:40:24;;;;;;;7.97;5.80;;;25.90;87.30;;;;;;5000796;28;20058;-63
2022/06/29 10:43:08;;;;;;;5.50;5.00;;;26.60;85.50;;;;;;4996204;28;20031;-63
2022/06/29 10:45:39;;;;;;;6.47;5.35;;;27.30;83.30;;;;;;4996267;28;20122;-63
2022/06/29 10:48:07;;;;;;;6.25;5.75;;;28.40;77.30;;;;;;5001557;28;20596;-64
2022/06/29 10:50:40;;;;;;;6.53;6.00;;;29.10;72.80;;;;;;5004732;28;20500;-66
2022/06/29 10:53:16;;;;;;;5.35;4.95;;;29.20;71.20;;;;;;5010987;28;20041;-63
2022/06/29 10:55:46;;;;;;;7.13;5.53;;;28.70;71.50;;;;;;4998502;28;20038;-63
2022/06/29 10:58:12;;;;;;;6.05;5.45;;;28.40;73.90;;;;;;4994333;28;20039;-63
2022/06/29 11:00:43;;;;;;;5.82;5.32;;;28.00;73.80;;;;;;5000626;28;20089;-63
2022/06/29 11:03:35;;;;;;;;;;;27.70;74.80;;;;;;5008024;28;20112;-63
2022/06/29 11:17:02;;;;;;;9.68;6.40;;;27.90;79.10;;;;;;5002597;28;20045;-63
2022/06/29 11:19:36;;;;;;;6.13;5.60;;;28.20;74.80;;;;;;5004553;28;20030;-63
2022/06/29 11:22:08;;;;;;;6.32;5.82;;;28.20;75.30;;;;;;5001853;28;20026;-63
2022/06/29 11:24:50;;;;;;;7.75;7.05;;;28.40;75.90;;;;;;5000194;28;20036;-63
2022/06/29 11:27:31;;;;;;;6.80;6.07;;;28.80;76.00;;;;;;5004512;28;20040;-63
2022/06/29 11:29:57;;;;;;;6.65;5.90;;;28.60;72.10;;;;;;5002574;28;20901;-63
2022/06/29 11:32:43;;;;;;;6.45;6.05;;;29.10;75.40;;;;;;4998932;28;20031;-63
2022/06/29 11:35:10;;;;;;;6.40;5.88;;;29.70;71.60;;;;;;5008405;28;20030;-64
2022/06/29 11:37:36;;;;;;;6.25;5.72;;;30.10;69.10;;;;;;5002196;28;20036;-63
2022/06/29 11:40:03;;;;;;;7.07;6.47;;;30.30;67.50;;;;;;5004348;28;20034;-64
2022/06/29 11:45:17;;;;;;;7.50;6.80;;;29.10;70.00;;;;;;5001329;28;20048;-64
2022/06/29 11:47:53;;;;;;;6.93;6.32;;;28.40;71.00;;;;;;5005266;28;20123;-63
2022/06/29 11:50:21;;;;;;;7.03;6.40;;;27.90;72.30;;;;;;5003051;28;20034;-64
2022/06/29 11:52:50;;;;;;;7.82;7.22;;;27.90;73.80;;;;;;5003107;28;20145;-63
2022/06/29 11:55:16;;;;;;;7.20;6.55;;;27.70;73.80;;;;;;5004818;28;20025;-63
2022/06/29 11:57:42;;;;;;;7.70;7.13;;;27.80;74.20;;;;;;5002411;28;20038;-63
2022/06/29 12:00:09;;;;;;;7.28;6.57;;;28.00;74.60;;;;;;5002552;28;20109;-63
2022/06/29 12:02:35;;;;;;;7.70;7.00;;;28.10;73.50;;;;;;5001036;28;20517;-63
2022/06/29 12:05:02;;;;;;;8.63;7.78;;;28.20;73.80;;;;;;5009986;28;20049;-63
2022/06/29 12:07:29;;;;;;;7.20;6.70;;;28.30;73.00;;;;;;5007298;28;20095;-64
2022/06/29 12:09:57;;;;;;;8.15;7.45;;;28.90;71.90;;;;;;5003635;28;20049;-64
2022/06/29 12:12:23;;;;;;;7.18;6.47;;;29.70;72.10;;;;;;5004597;28;20065;-64
2022/06/29 12:14:48;;;;;;;7.10;6.50;;;30.50;68.70;;;;;;4999921;28;20050;-64
2022/06/29 12:17:14;;;;;;;6.97;6.40;;;30.60;66.70;;;;;;5002628;28;20049;-64
2022/06/29 12:19:42;;;;;;;6.72;6.05;;;30.60;65.60;;;;;;5005243;28;20027;-63
2022/06/29 12:22:08;;;;;;;6.30;5.80;;;30.90;65.90;;;;;;5003807;28;20029;-63
2022/06/29 12:24:34;;;;;;;6.97;6.32;;;31.10;64.80;;;;;;5003185;28;20030;-64
2022/06/29 12:26:59;;;;;;;8.27;5.75;;;31.40;63.80;;;;;;5001518;28;20018;-64
2022/06/29 12:29:25;;;;;;;6.20;5.60;;;31.20;62.40;;;;;;5004184;28;20509;-64
2022/06/29 12:31:51;;;;;;;7.38;5.72;;;30.90;62.80;;;;;;5005390;28;20034;-64
2022/06/29 12:34:17;;;;;;;5.88;5.47;;;31.00;63.10;;;;;;5002679;28;20034;-64
2022/06/29 12:36:42;;;;;;;6.72;6.07;;;31.00;62.90;;;;;;5000610;28;20034;-63
2022/06/29 12:39:09;;;;;;;7.32;6.63;;;30.40;64.20;;;;;;5002161;28;20517;-64
2022/06/29 12:41:36;;;;;;;7.90;6.85;;;29.70;67.10;;;;;;4998859;28;20032;-64
2022/06/29 12:44:03;;;;;;;7.50;6.90;;;29.40;70.00;;;;;;5004160;28;20034;-63
2022/06/29 12:46:30;;;;;;;9.93;6.80;;;29.30;69.10;;;;;;5000365;28;20026;-64
2022/06/29 12:48:56;;;;;;;7.35;6.45;;;29.70;70.30;;;;;;4997441;28;20030;-64
2022/06/29 12:51:23;;;;;;;7.50;6.55;;;30.40;69.00;;;;;;5004095;28;20062;-64
2022/06/29 12:53:49;;;;;;;7.28;6.57;;;30.90;66.40;;;;;;5002700;28;20018;-64
2022/06/29 12:56:15;;;;;;;6.88;6.38;;;31.00;64.20;;;;;;5004580;28;20068;-64
2022/06/29 12:58:41;;;;;;;7.60;6.93;;;31.10;65.20;;;;;;5002451;28;20493;-64
2022/06/29 13:01:07;;;;;;;6.70;6.13;;;31.10;65.80;;;;;;5002150;28;20044;-63
2022/06/29 13:03:33;;;;;;;7.00;6.40;;;31.10;65.80;;;;;;5004364;28;20030;-63
2022/06/29 13:05:59;;;;;;;6.68;6.00;;;31.00;65.50;;;;;;5003721;28;20045;-63
2022/06/29 13:08:24;;;;;;;5.75;5.18;;;30.90;65.20;;;;;;5002885;28;20420;-63
2022/06/29 13:10:50;;;;;;;6.22;5.72;;;30.40;63.70;;;;;;5004645;28;20065;-63